Time;durP1;ratioP1;P1;durP2;ratioP2;P2;SDS_P1;SDS_P2;PMS_P1;PMS_P2;Temp;Humidity;BMP_temperature;BMP_pressure;BME280_temperature;BME280_humidity;BME280_pressure;Samples;Min_cycle;Max_cycle;Signal;HPM_P1;HPM_P2
2023/09/24 00:02:10;;;;;;;4.47;4.07;;;13.60;99.90;;;;;;5099405;28;20465;-63
2023/09/24 00:04:37;;;;;;;6.50;4.40;;;13.70;99.90;;;;;;5095448;28;20422;-63
2023/09/24 00:07:03;;;;;;;5.07;4.57;;;13.70;99.90;;;;;;5081547;28;20422;-63
2023/09/24 00:09:28;;;;;;;5.20;4.30;;;13.70;99.90;;;;;;5094902;28;20432;-63
2023/09/24 00:11:54;;;;;;;6.60;4.47;;;13.70;99.90;;;;;;5100769;28;20179;-62
2023/09/24 00:14:20;;;;;;;5.93;4.93;;;13.70;99.90;;;;;;5101524;28;20191;-63
2023/09/24 00:16:46;;;;;;;5.90;4.27;;;13.60;99.90;;;;;;5095312;28;20457;-62
2023/09/24 00:19:12;;;;;;;4.73;4.33;;;13.60;99.90;;;;;;5102025;28;20689;-63
2023/09/24 00:21:37;;;;;;;4.77;4.23;;;13.50;99.90;;;;;;5090696;28;20677;-62
2023/09/24 00:24:04;;;;;;;7.00;5.30;;;13.60;99.90;;;;;;5101263;28;20414;-59
2023/09/24 00:26:29;;;;;;;5.30;4.53;;;13.50;99.90;;;;;;5088424;28;20183;-63
2023/09/24 00:28:56;;;;;;;6.90;4.57;;;13.30;99.90;;;;;;5097134;28;20428;-63
2023/09/24 00:31:22;;;;;;;5.50;5.00;;;13.30;99.90;;;;;;5102922;28;20436;-63
2023/09/24 00:33:48;;;;;;;6.20;4.70;;;13.20;99.90;;;;;;5089191;28;20419;-62
2023/09/24 00:36:15;;;;;;;6.30;4.67;;;13.20;99.90;;;;;;5104451;28;21481;-63
2023/09/24 00:38:41;;;;;;;4.67;4.27;;;13.30;99.90;;;;;;5094311;28;20185;-61
2023/09/24 00:41:07;;;;;;;5.33;4.37;;;13.30;99.90;;;;;;5100768;28;20999;-63
2023/09/24 00:43:35;;;;;;;4.70;4.27;;;13.30;99.90;;;;;;5106046;28;20437;-62
2023/09/24 00:46:04;;;;;;;5.10;4.00;;;13.30;99.90;;;;;;5099129;28;20219;-63
2023/09/24 00:48:32;;;;;;;4.60;3.80;;;13.30;99.90;;;;;;5095979;28;21013;-62
2023/09/24 00:51:02;;;;;;;4.97;4.27;;;13.30;99.90;;;;;;5100785;28;20433;-63
2023/09/24 00:53:30;;;;;;;5.47;4.13;;;13.30;99.90;;;;;;5105786;28;20437;-62
2023/09/24 00:55:57;;;;;;;4.07;3.70;;;13.30;99.90;;;;;;5101485;28;20445;-63
2023/09/24 00:58:24;;;;;;;6.00;4.30;;;13.30;99.90;;;;;;5097956;28;20450;-63
2023/09/24 01:00:54;;;;;;;5.40;4.20;;;13.30;99.90;;;;;;5097241;28;20411;-63
2023/09/24 01:03:24;;;;;;;6.43;4.40;;;13.20;99.90;;;;;;5099316;28;20808;-63
2023/09/24 01:05:53;;;;;;;5.90;4.80;;;13.30;99.90;;;;;;5103474;28;20525;-63
2023/09/24 01:08:21;;;;;;;5.13;4.63;;;13.20;99.90;;;;;;5092924;28;20433;-63
2023/09/24 01:10:47;;;;;;;5.40;4.83;;;13.20;99.90;;;;;;5104972;28;20495;-62
2023/09/24 01:13:20;;;;;;;4.83;4.33;;;13.20;99.90;;;;;;5098821;28;20544;-63
2023/09/24 01:15:50;;;;;;;4.80;4.37;;;13.10;99.90;;;;;;5098502;28;20421;-63
2023/09/24 01:18:17;;;;;;;5.37;4.33;;;13.00;99.90;;;;;;5098732;28;20433;-62
2023/09/24 01:20:43;;;;;;;5.23;4.17;;;12.90;99.90;;;;;;5098748;28;20429;-63
2023/09/24 01:23:14;;;;;;;6.70;4.93;;;12.80;99.90;;;;;;5098846;28;20422;-62
2023/09/24 01:25:40;;;;;;;5.20;4.40;;;12.80;99.90;;;;;;5105661;28;20421;-63
2023/09/24 01:28:07;;;;;;;8.93;5.00;;;12.80;99.90;;;;;;5105146;28;20511;-63
2023/09/24 01:30:34;;;;;;;5.33;4.20;;;12.80;99.90;;;;;;5095232;28;20437;-63
2023/09/24 01:33:00;;;;;;;5.77;5.20;;;12.90;99.90;;;;;;5094861;28;20514;-63
2023/09/24 01:35:28;;;;;;;5.27;4.50;;;12.90;99.90;;;;;;5105220;28;20422;-63
2023/09/24 01:37:59;;;;;;;5.30;4.43;;;12.70;99.90;;;;;;5099391;28;20449;-63
2023/09/24 01:40:27;;;;;;;9.70;4.73;;;12.60;99.90;;;;;;5103256;28;21195;-62
2023/09/24 01:42:57;;;;;;;6.00;4.80;;;12.50;99.90;;;;;;5096983;28;20458;-63
2023/09/24 01:45:24;;;;;;;8.30;4.67;;;12.40;99.90;;;;;;5086740;28;20490;-63
2023/09/24 01:47:49;;;;;;;6.03;4.70;;;12.50;99.90;;;;;;5098299;28;20476;-62
2023/09/24 01:50:16;;;;;;;7.40;4.87;;;12.50;99.90;;;;;;5094766;28;20454;-63
2023/09/24 01:52:48;;;;;;;4.93;4.33;;;12.50;99.90;;;;;;5101042;28;20173;-63
2023/09/24 01:55:15;;;;;;;5.60;4.53;;;12.60;99.90;;;;;;5096129;28;20434;-63
2023/09/24 01:57:43;;;;;;;9.30;4.70;;;12.60;99.90;;;;;;5093975;28;20422;-62
2023/09/24 02:00:23;;;;;;;6.97;4.47;;;12.40;99.90;;;;;;5101984;28;20425;-63
2023/09/24 02:02:50;;;;;;;6.90;4.73;;;12.30;99.90;;;;;;5091924;28;20460;-63
2023/09/24 02:05:16;;;;;;;5.30;4.13;;;12.40;99.90;;;;;;5097893;28;20433;-63
2023/09/24 02:07:42;;;;;;;6.27;4.77;;;12.40;99.90;;;;;;5103319;28;20841;-62
2023/09/24 02:10:08;;;;;;;7.30;4.33;;;12.40;99.90;;;;;;5103608;28;20433;-63
2023/09/24 02:12:37;;;;;;;6.70;4.90;;;12.40;99.90;;;;;;5095309;28;20183;-63
2023/09/24 02:15:11;;;;;;;5.30;4.60;;;12.30;99.90;;;;;;5094261;28;20418;-62
2023/09/24 02:17:41;;;;;;;8.63;4.50;;;12.20;99.90;;;;;;5097067;28;20983;-62
2023/09/24 02:20:31;;;;;;;7.03;4.73;;;12.20;99.90;;;;;;5097524;28;20441;-63
2023/09/24 02:23:02;;;;;;;4.13;3.73;;;12.20;99.90;;;;;;5093241;28;20453;-63
2023/09/24 02:25:30;;;;;;;5.60;4.50;;;12.20;99.90;;;;;;5102847;28;20414;-62
2023/09/24 02:27:56;;;;;;;5.17;4.67;;;12.10;99.90;;;;;;5099257;28;20525;-63
2023/09/24 02:30:24;;;;;;;6.93;4.93;;;12.10;99.90;;;;;;5103562;28;20512;-63
2023/09/24 02:32:50;;;;;;;4.50;4.10;;;12.00;99.90;;;;;;5098253;28;20501;-62
2023/09/24 02:35:16;;;;;;;6.07;5.20;;;12.00;99.90;;;;;;5104472;28;20428;-63
2023/09/24 02:37:53;;;;;;;4.80;4.30;;;12.10;99.90;;;;;;5092958;28;20180;-63
2023/09/24 02:42:46;;;;;;;7.30;4.60;;;12.20;99.90;;;;;;5094501;28;20522;-63
2023/09/24 02:45:15;;;;;;;7.37;4.93;;;12.20;99.90;;;;;;5104579;28;20426;-62
2023/09/24 02:47:46;;;;;;;6.10;5.00;;;12.20;99.90;;;;;;5102429;28;20205;-62
2023/09/24 02:50:15;;;;;;;7.50;4.93;;;12.20;99.90;;;;;;5078089;28;20459;-63
2023/09/24 02:52:42;;;;;;;5.53;4.40;;;12.20;99.90;;;;;;5091848;28;20418;-63
2023/09/24 02:55:14;;;;;;;5.50;4.77;;;12.10;99.90;;;;;;5085167;28;20776;-64
2023/09/24 02:57:41;;;;;;;8.30;5.23;;;12.20;99.90;;;;;;5091968;28;20430;-63
2023/09/24 03:00:18;;;;;;;5.43;4.83;;;12.20;99.90;;;;;;5084516;28;21117;-63
2023/09/24 03:02:44;;;;;;;5.70;4.67;;;12.20;99.90;;;;;;5095547;28;20460;-62
2023/09/24 03:05:11;;;;;;;5.83;4.70;;;12.30;99.90;;;;;;5087465;28;20419;-62
2023/09/24 03:07:38;;;;;;;8.53;5.80;;;12.30;99.90;;;;;;5095260;28;20441;-63
2023/09/24 03:10:07;;;;;;;7.87;5.80;;;12.30;99.90;;;;;;5096677;28;20501;-62
2023/09/24 03:12:34;;;;;;;9.80;5.63;;;12.40;99.90;;;;;;5094995;28;20430;-63
2023/09/24 03:15:01;;;;;;;6.67;5.13;;;12.30;99.90;;;;;;5103149;28;20441;-63
2023/09/24 03:17:27;;;;;;;7.33;5.30;;;12.30;99.90;;;;;;5103252;28;20954;-63
2023/09/24 03:19:53;;;;;;;6.57;5.47;;;12.30;99.90;;;;;;5100739;28;20430;-63
2023/09/24 03:22:21;;;;;;;6.60;5.50;;;12.30;99.90;;;;;;5095369;28;20813;-63
2023/09/24 03:24:50;;;;;;;7.27;5.37;;;12.30;99.90;;;;;;5090423;28;20176;-63
2023/09/24 03:27:16;;;;;;;5.40;4.90;;;12.30;99.90;;;;;;5086162;28;21196;-63
2023/09/24 03:29:43;;;;;;;8.23;6.33;;;12.30;99.90;;;;;;5098612;28;20456;-63
2023/09/24 03:32:09;;;;;;;6.13;5.53;;;12.30;99.90;;;;;;5102568;28;20183;-63
2023/09/24 03:34:35;;;;;;;8.43;6.80;;;12.30;99.90;;;;;;5095062;28;20418;-63
2023/09/24 03:37:01;;;;;;;9.40;5.60;;;12.30;99.90;;;;;;5084211;28;20183;-63
2023/09/24 03:39:27;;;;;;;7.70;5.53;;;12.30;99.90;;;;;;5103421;28;20851;-63
2023/09/24 03:41:53;;;;;;;8.20;5.80;;;12.30;99.90;;;;;;5107196;28;20322;-63
2023/09/24 03:44:18;;;;;;;7.47;6.13;;;12.30;99.90;;;;;;5095319;28;20624;-62
2023/09/24 03:46:44;;;;;;;6.57;5.30;;;12.30;99.90;;;;;;5089622;28;20214;-62
2023/09/24 03:49:11;;;;;;;6.63;5.53;;;12.30;99.90;;;;;;5076368;28;1096464;-62
2023/09/24 03:51:37;;;;;;;8.20;5.67;;;12.30;99.90;;;;;;5097908;28;20188;-62
2023/09/24 03:54:03;;;;;;;9.23;5.93;;;12.30;99.90;;;;;;5093160;28;20446;-63
2023/09/24 03:56:28;;;;;;;8.20;5.50;;;12.30;99.90;;;;;;5094416;28;20196;-64
2023/09/24 03:58:54;;;;;;;8.97;5.77;;;12.30;99.90;;;;;;5099258;28;21248;-64
2023/09/24 04:01:20;;;;;;;5.23;4.57;;;12.30;99.90;;;;;;5088463;28;20314;-63
2023/09/24 04:03:46;;;;;;;6.80;6.10;;;12.30;99.90;;;;;;5100966;28;20421;-64
2023/09/24 04:06:12;;;;;;;7.57;6.00;;;12.30;99.90;;;;;;5102740;28;20666;-64
2023/09/24 04:08:39;;;;;;;7.97;5.07;;;12.30;99.90;;;;;;5100089;28;20177;-64
2023/09/24 04:11:12;;;;;;;6.77;5.30;;;12.20;99.90;;;;;;5079544;28;20556;-64
2023/09/24 04:13:38;;;;;;;6.90;5.30;;;12.20;99.90;;;;;;5087841;28;20421;-64
2023/09/24 04:16:14;;;;;;;7.70;6.30;;;12.20;99.90;;;;;;5096015;28;20464;-64
2023/09/24 04:18:41;;;;;;;8.73;5.43;;;12.30;99.90;;;;;;5088063;28;21115;-64
2023/09/24 04:21:19;;;;;;;7.77;5.87;;;12.20;99.90;;;;;;5095964;28;21045;-64
2023/09/24 04:23:46;;;;;;;11.00;5.90;;;12.20;99.90;;;;;;5087902;28;20448;-64
2023/09/24 04:26:22;;;;;;;9.73;5.37;;;12.20;99.90;;;;;;5095596;28;20430;-63
2023/09/24 04:28:50;;;;;;;6.60;5.20;;;12.20;99.90;;;;;;5088022;28;20431;-64
2023/09/24 04:31:16;;;;;;;6.93;5.23;;;12.20;99.90;;;;;;5095869;28;20427;-64
2023/09/24 04:33:44;;;;;;;6.63;5.40;;;12.20;99.90;;;;;;5101171;28;20426;-64
2023/09/24 04:36:10;;;;;;;8.27;5.30;;;12.20;99.90;;;;;;5095622;28;20527;-64
2023/09/24 04:38:36;;;;;;;6.17;5.50;;;12.20;99.90;;;;;;5083607;28;20833;-64
2023/09/24 04:41:03;;;;;;;5.27;4.60;;;12.20;99.90;;;;;;5098480;28;21159;-64
2023/09/24 04:43:29;;;;;;;6.77;5.77;;;12.20;99.90;;;;;;5100206;28;20432;-63
2023/09/24 04:45:54;;;;;;;7.17;5.97;;;12.20;99.90;;;;;;5097799;28;20433;-64
2023/09/24 04:48:20;;;;;;;7.60;6.17;;;12.20;99.90;;;;;;5094514;28;20219;-63
2023/09/24 04:50:46;;;;;;;10.80;5.90;;;12.20;99.90;;;;;;5097732;28;20221;-64
2023/09/24 04:53:12;;;;;;;7.87;5.40;;;12.10;99.90;;;;;;5100582;28;20184;-63
2023/09/24 04:55:37;;;;;;;6.97;6.30;;;12.10;99.90;;;;;;5083653;28;20184;-64
2023/09/24 04:58:03;;;;;;;6.97;5.63;;;12.00;99.90;;;;;;5101828;28;20183;-64
2023/09/24 05:00:29;;;;;;;7.90;4.80;;;11.90;99.90;;;;;;5101889;28;20267;-64
2023/09/24 05:02:54;;;;;;;6.63;5.73;;;11.90;99.90;;;;;;5095605;28;20322;-64
2023/09/24 05:05:20;;;;;;;6.67;5.37;;;11.80;99.90;;;;;;5094299;28;20183;-64
2023/09/24 05:07:46;;;;;;;7.30;6.27;;;11.90;99.90;;;;;;5091158;28;20195;-64
2023/09/24 05:10:12;;;;;;;7.00;5.37;;;11.90;99.90;;;;;;5091548;28;20195;-64
2023/09/24 05:12:38;;;;;;;8.00;5.67;;;11.90;99.90;;;;;;5096599;28;20438;-63
2023/09/24 05:15:04;;;;;;;6.57;5.83;;;12.00;99.90;;;;;;5094440;28;20200;-64
2023/09/24 05:17:33;;;;;;;6.33;5.53;;;11.90;99.90;;;;;;5098095;28;20414;-64
2023/09/24 05:19:59;;;;;;;6.23;5.63;;;11.90;99.90;;;;;;5106344;28;20487;-64
2023/09/24 05:22:27;;;;;;;7.47;5.50;;;11.90;99.90;;;;;;5105627;28;20468;-63
2023/09/24 05:24:53;;;;;;;5.87;5.33;;;11.90;99.90;;;;;;5104621;27;20803;-64
2023/09/24 05:27:19;;;;;;;6.47;5.50;;;11.80;99.90;;;;;;5104493;28;20421;-64
2023/09/24 05:29:48;;;;;;;8.73;5.97;;;11.70;99.90;;;;;;5103982;28;20183;-64
2023/09/24 05:32:14;;;;;;;7.60;5.80;;;11.50;99.90;;;;;;5098586;28;20437;-64
2023/09/24 05:34:40;;;;;;;6.33;5.73;;;11.50;99.90;;;;;;5094541;28;20434;-64
2023/09/24 05:37:06;;;;;;;8.53;5.87;;;11.50;99.90;;;;;;5095376;28;20362;-64
2023/09/24 05:39:33;;;;;;;7.30;5.63;;;11.40;99.90;;;;;;5101510;28;20261;-64
2023/09/24 05:41:59;;;;;;;7.43;5.60;;;11.40;99.90;;;;;;5101367;28;20210;-64
2023/09/24 05:44:25;;;;;;;6.90;6.20;;;11.50;99.90;;;;;;5098266;28;20435;-64
2023/09/24 05:46:50;;;;;;;9.50;5.70;;;11.60;99.90;;;;;;5105173;28;20202;-63
2023/09/24 05:49:16;;;;;;;7.23;6.00;;;11.60;99.90;;;;;;5089837;28;20290;-64
2023/09/24 05:51:42;;;;;;;6.50;5.90;;;11.60;99.90;;;;;;5097535;28;20414;-63
2023/09/24 05:54:10;;;;;;;7.83;6.97;;;11.70;99.90;;;;;;5091080;28;20287;-64
2023/09/24 05:56:36;;;;;;;7.70;6.30;;;11.70;99.90;;;;;;5102192;28;20807;-64
2023/09/24 05:59:02;;;;;;;6.50;5.70;;;11.50;99.90;;;;;;5094639;28;20479;-64
2023/09/24 06:01:28;;;;;;;7.00;6.13;;;11.40;99.90;;;;;;5095342;28;20473;-64
2023/09/24 06:03:54;;;;;;;7.70;6.90;;;11.50;99.90;;;;;;5092841;28;20211;-64
2023/09/24 06:06:19;;;;;;;9.27;6.50;;;11.50;99.90;;;;;;5097124;28;20184;-64
2023/09/24 06:08:45;;;;;;;8.57;6.33;;;11.60;99.90;;;;;;5094131;28;20189;-64
2023/09/24 06:11:11;;;;;;;9.10;6.30;;;11.60;99.90;;;;;;5094136;28;20267;-64
2023/09/24 06:13:37;;;;;;;9.10;6.40;;;11.60;99.90;;;;;;5097184;28;20246;-63
2023/09/24 06:16:03;;;;;;;12.20;7.83;;;11.70;99.90;;;;;;5098605;27;20880;-64
2023/09/24 06:18:29;;;;;;;8.23;6.90;;;11.80;99.90;;;;;;5103915;27;20417;-64
2023/09/24 06:20:56;;;;;;;9.50;6.67;;;11.90;99.90;;;;;;5097693;28;20437;-64
2023/09/24 06:23:22;;;;;;;9.27;7.27;;;12.00;99.90;;;;;;5103621;28;20437;-64
2023/09/24 06:25:55;;;;;;;7.10;6.40;;;12.20;99.90;;;;;;5096665;28;20556;-64
2023/09/24 06:28:21;;;;;;;7.83;6.13;;;12.30;99.90;;;;;;5097139;28;20176;-64
2023/09/24 06:30:47;;;;;;;9.90;6.40;;;12.40;99.90;;;;;;5100914;27;20483;-64
2023/09/24 06:33:12;;;;;;;9.10;6.43;;;12.30;99.90;;;;;;5104033;28;20188;-64
2023/09/24 06:35:38;;;;;;;7.87;6.33;;;12.40;99.90;;;;;;5103413;28;20190;-64
2023/09/24 06:38:04;;;;;;;8.90;6.80;;;12.50;99.90;;;;;;5096674;28;20195;-64
2023/09/24 06:40:30;;;;;;;9.90;6.70;;;12.60;99.90;;;;;;5095572;28;20190;-64
2023/09/24 06:42:56;;;;;;;10.63;7.20;;;12.70;99.90;;;;;;5106622;27;20846;-64
2023/09/24 06:45:22;;;;;;;9.37;6.67;;;12.70;99.90;;;;;;5104910;27;20428;-63
2023/09/24 06:47:48;;;;;;;7.27;5.87;;;12.70;99.90;;;;;;5097997;28;20722;-64
2023/09/24 06:50:14;;;;;;;9.73;7.00;;;12.60;99.90;;;;;;5097073;28;20438;-64
2023/09/24 06:52:39;;;;;;;8.73;6.60;;;12.60;99.90;;;;;;5096400;28;20554;-64
2023/09/24 06:55:11;;;;;;;10.83;6.50;;;12.70;99.90;;;;;;5097179;28;20638;-64
2023/09/24 06:57:37;;;;;;;6.67;5.73;;;12.80;99.90;;;;;;5096226;28;20530;-64
2023/09/24 07:00:08;;;;;;;8.53;6.90;;;12.80;99.90;;;;;;5097235;28;20429;-64
2023/09/24 07:02:34;;;;;;;10.00;6.10;;;12.80;99.90;;;;;;5100227;28;20912;-64
2023/09/24 07:05:00;;;;;;;12.87;5.77;;;12.90;99.90;;;;;;5093664;28;20469;-64
2023/09/24 07:07:26;;;;;;;7.80;5.47;;;13.00;99.90;;;;;;5093642;28;20453;-64
2023/09/24 07:09:52;;;;;;;7.10;5.80;;;13.00;99.90;;;;;;5091253;28;20269;-64
2023/09/24 07:12:18;;;;;;;6.67;5.67;;;13.20;99.90;;;;;;5102883;27;20449;-63
2023/09/24 07:14:43;;;;;;;7.73;5.47;;;13.30;99.90;;;;;;5102754;28;20206;-65
2023/09/24 07:17:09;;;;;;;9.60;6.10;;;13.40;99.90;;;;;;5104050;28;20180;-64
2023/09/24 07:19:35;;;;;;;6.47;5.83;;;13.50;99.90;;;;;;5098688;28;20184;-64
2023/09/24 07:22:02;;;;;;;8.77;5.60;;;13.70;99.90;;;;;;5092865;28;20527;-64
2023/09/24 07:24:28;;;;;;;8.80;6.23;;;13.80;99.90;;;;;;5086409;28;20452;-64
2023/09/24 07:26:54;;;;;;;6.70;5.37;;;14.00;99.90;;;;;;5098393;28;21081;-64
2023/09/24 07:29:20;;;;;;;7.37;4.43;;;14.20;99.90;;;;;;5098058;28;20422;-64
2023/09/24 07:31:46;;;;;;;6.00;4.30;;;14.40;99.90;;;;;;5103319;28;20183;-64
2023/09/24 07:34:11;;;;;;;6.17;5.30;;;14.60;99.90;;;;;;5099571;27;20474;-64
2023/09/24 07:36:37;;;;;;;7.50;4.30;;;14.80;99.90;;;;;;5100924;27;20181;-64
2023/09/24 07:39:04;;;;;;;6.57;4.13;;;15.00;99.90;;;;;;5092819;28;20188;-64
2023/09/24 07:41:29;;;;;;;5.10;4.00;;;15.10;99.90;;;;;;5097352;27;20246;-64
2023/09/24 07:43:55;;;;;;;4.63;3.43;;;15.20;99.90;;;;;;5096181;28;20578;-65
2023/09/24 07:46:21;;;;;;;5.17;3.80;;;15.40;99.90;;;;;;5099847;28;20211;-64
2023/09/24 07:48:48;;;;;;;7.27;3.60;;;15.50;99.90;;;;;;5093865;28;20180;-64
2023/09/24 07:51:17;;;;;;;5.23;3.10;;;15.70;99.90;;;;;;5094157;28;20319;-64
2023/09/24 07:53:44;;;;;;;4.90;3.00;;;15.80;99.90;;;;;;5087065;28;20489;-64
2023/09/24 07:56:10;;;;;;;7.03;2.93;;;16.00;99.90;;;;;;5094100;28;20448;-64
2023/09/24 07:58:37;;;;;;;2.70;2.40;;;16.20;99.90;;;;;;5095220;28;20932;-64
2023/09/24 08:01:05;;;;;;;4.73;2.70;;;16.30;99.90;;;;;;5106081;28;20186;-64
2023/09/24 08:03:31;;;;;;;11.27;3.30;;;16.40;99.90;;;;;;5103822;28;20461;-64
2023/09/24 08:05:58;;;;;;;5.00;2.63;;;16.40;99.90;;;;;;5095428;28;20842;-64
2023/09/24 08:08:25;;;;;;;3.03;2.30;;;16.40;99.90;;;;;;5097333;27;20816;-64
2023/09/24 08:10:51;;;;;;;3.23;2.40;;;16.40;99.90;;;;;;5110831;27;21049;-64
2023/09/24 08:13:18;;;;;;;4.23;2.30;;;16.40;99.90;;;;;;5094107;28;20558;-64
2023/09/24 08:15:44;;;;;;;4.20;2.60;;;16.30;99.90;;;;;;5096690;28;20216;-63
2023/09/24 08:18:11;;;;;;;4.10;3.10;;;16.30;99.90;;;;;;5095350;28;20452;-63
2023/09/24 08:20:37;;;;;;;4.20;2.10;;;16.30;99.90;;;;;;5106817;28;20235;-63
2023/09/24 08:23:04;;;;;;;6.53;2.07;;;16.30;99.90;;;;;;5099984;28;21342;-64
2023/09/24 08:25:31;;;;;;;2.53;1.73;;;16.30;99.90;;;;;;5100096;28;20523;-64
2023/09/24 08:27:57;;;;;;;3.70;2.07;;;16.30;99.90;;;;;;5095189;28;20434;-64
2023/09/24 08:30:23;;;;;;;3.47;1.93;;;16.40;99.90;;;;;;5100818;28;20445;-63
2023/09/24 08:32:48;;;;;;;3.40;1.87;;;16.40;99.90;;;;;;5099310;28;20442;-64
2023/09/24 08:35:14;;;;;;;5.60;1.57;;;16.30;99.90;;;;;;5099314;28;20563;-63
2023/09/24 08:37:39;;;;;;;4.60;3.10;;;16.40;99.90;;;;;;5099254;28;20227;-63
2023/09/24 08:40:09;;;;;;;3.90;1.77;;;16.40;99.90;;;;;;5095931;28;20200;-64
2023/09/24 08:42:36;;;;;;;4.57;2.27;;;16.40;99.90;;;;;;5102450;28;20265;-63
2023/09/24 08:45:11;;;;;;;2.67;1.73;;;16.50;99.90;;;;;;5093223;28;20530;-63
2023/09/24 08:47:40;;;;;;;1.83;1.43;;;16.50;99.90;;;;;;5077097;28;20481;-64
2023/09/24 08:50:07;;;;;;;3.77;1.80;;;16.60;99.90;;;;;;5109833;27;20459;-63
2023/09/24 08:52:36;;;;;;;3.33;1.90;;;16.70;99.90;;;;;;5066962;27;20522;-64
2023/09/24 08:55:05;;;;;;;3.40;1.50;;;16.70;99.90;;;;;;5094139;27;20446;-64
2023/09/24 08:57:34;;;;;;;5.10;1.83;;;16.80;99.90;;;;;;5088585;28;20457;-64
2023/09/24 09:00:01;;;;;;;2.47;1.53;;;16.90;99.90;;;;;;5106090;27;20445;-63
2023/09/24 09:02:28;;;;;;;4.07;1.70;;;16.90;99.90;;;;;;5104012;27;21050;-62
2023/09/24 09:04:55;;;;;;;1.97;1.40;;;16.90;99.90;;;;;;5080258;27;20553;-62
2023/09/24 09:07:21;;;;;;;4.00;1.43;;;17.00;99.90;;;;;;5103047;27;20464;-64
2023/09/24 09:09:54;;;;;;;2.43;1.30;;;17.10;99.90;;;;;;5108803;27;20528;-64
2023/09/24 09:12:21;;;;;;;3.30;1.53;;;17.20;99.90;;;;;;5107339;27;20431;-63
2023/09/24 09:14:46;;;;;;;4.10;2.17;;;17.30;99.90;;;;;;5105585;27;20433;-64
2023/09/24 09:17:12;;;;;;;4.50;1.90;;;17.40;99.90;;;;;;5112263;27;20435;-63
2023/09/24 09:19:52;;;;;;;3.47;1.70;;;17.60;99.90;;;;;;5114114;27;20633;-63
2023/09/24 09:22:20;;;;;;;1.73;1.20;;;17.70;99.90;;;;;;5108418;27;20230;-63
2023/09/24 09:24:48;;;;;;;3.90;1.50;;;17.70;99.90;;;;;;5109999;27;20512;-64
2023/09/24 09:27:14;;;;;;;4.83;1.57;;;17.90;99.90;;;;;;5104415;28;20985;-63
2023/09/24 09:29:40;;;;;;;4.33;1.97;;;17.90;99.90;;;;;;5103294;27;20433;-63
2023/09/24 09:32:05;;;;;;;1.77;1.10;;;18.00;99.90;;;;;;5104789;27;20418;-64
2023/09/24 09:34:32;;;;;;;2.23;1.30;;;18.10;99.90;;;;;;5089819;27;20266;-63
2023/09/24 09:37:17;;;;;;;4.10;1.67;;;18.30;99.90;;;;;;5113520;27;20190;-64
2023/09/24 09:39:44;;;;;;;4.60;1.63;;;18.40;99.90;;;;;;5102392;28;20425;-63
2023/09/24 09:42:13;;;;;;;2.47;1.50;;;18.60;99.90;;;;;;5103460;28;20507;-63
2023/09/24 09:44:42;;;;;;;2.07;1.47;;;18.60;99.90;;;;;;5107671;27;20479;-64
2023/09/24 09:47:11;;;;;;;6.17;1.73;;;18.80;99.90;;;;;;5107813;27;20429;-64
2023/09/24 09:49:41;;;;;;;2.80;1.27;;;19.00;99.90;;;;;;5099835;27;20516;-64
2023/09/24 09:52:13;;;;;;;3.30;1.27;;;19.10;99.90;;;;;;5105635;27;20470;-64
2023/09/24 09:54:40;;;;;;;2.97;1.50;;;19.20;99.90;;;;;;5104198;27;21079;-64
2023/09/24 09:57:05;;;;;;;2.90;2.60;;;19.40;99.90;;;;;;5102534;28;20582;-63
2023/09/24 09:59:34;;;;;;;2.70;1.10;;;19.50;99.90;;;;;;5095204;27;20942;-64
2023/09/24 10:02:01;;;;;;;5.33;1.70;;;19.60;99.90;;;;;;5100533;28;20215;-63
2023/09/24 10:04:29;;;;;;;2.60;0.93;;;19.70;99.90;;;;;;5098731;28;20492;-64
2023/09/24 10:06:55;;;;;;;4.30;1.20;;;19.90;99.90;;;;;;5107403;27;20440;-63
2023/09/24 10:09:27;;;;;;;2.07;1.00;;;19.80;99.90;;;;;;5097359;27;20437;-63
2023/09/24 10:11:55;;;;;;;1.47;1.03;;;19.90;99.90;;;;;;5101007;27;20826;-63
2023/09/24 10:14:38;;;;;;;3.57;1.50;;;20.00;99.90;;;;;;5096049;28;20927;-63
2023/09/24 10:17:15;;;;;;;3.10;1.00;;;20.00;99.90;;;;;;5098085;28;20434;-63
2023/09/24 10:19:53;;;;;;;1.70;1.10;;;20.00;99.90;;;;;;5095200;28;20433;-63
2023/09/24 10:22:25;;;;;;;4.30;1.10;;;20.00;99.90;;;;;;5095820;28;20472;-63
2023/09/24 10:24:51;;;;;;;1.97;0.90;;;20.10;99.90;;;;;;5101020;28;20473;-63
2023/09/24 10:27:23;;;;;;;1.50;1.40;;;20.00;99.20;;;;;;5091038;28;20520;-62
2023/09/24 10:29:53;;;;;;;3.20;1.10;;;20.00;99.90;;;;;;5101472;28;20437;-63
2023/09/24 10:32:23;;;;;;;1.40;0.80;;;19.90;99.90;;;;;;5102406;28;20506;-63
2023/09/24 10:34:52;;;;;;;2.80;1.03;;;19.90;99.90;;;;;;5103547;28;20424;-63
2023/09/24 10:37:22;;;;;;;4.07;1.60;;;20.00;99.90;;;;;;5101893;28;20430;-63
2023/09/24 10:40:09;;;;;;;3.20;1.20;;;20.10;99.90;;;;;;5075351;28;20426;-63
2023/09/24 10:42:38;;;;;;;2.47;1.10;;;20.10;99.90;;;;;;5093767;28;21164;-63
2023/09/24 10:45:07;;;;;;;4.90;1.00;;;20.00;99.90;;;;;;5099178;28;20459;-63
2023/09/24 10:47:35;;;;;;;3.73;1.70;;;20.00;99.90;;;;;;5100731;27;20529;-64
2023/09/24 10:50:03;;;;;;;2.80;1.13;;;20.00;99.80;;;;;;5102790;28;20502;-63
2023/09/24 10:52:29;;;;;;;3.07;1.10;;;20.00;99.30;;;;;;5100144;28;20886;-63
2023/09/24 10:54:55;;;;;;;2.53;0.87;;;19.90;99.40;;;;;;5097132;28;20894;-64
2023/09/24 10:57:28;;;;;;;2.73;0.93;;;19.90;99.70;;;;;;5093710;28;20431;-64
2023/09/24 10:59:53;;;;;;;4.53;1.57;;;20.00;99.80;;;;;;5096612;28;20426;-63
2023/09/24 11:02:20;;;;;;;1.30;0.80;;;20.10;99.70;;;;;;5098667;28;20472;-63
2023/09/24 11:04:46;;;;;;;3.10;1.20;;;20.20;99.90;;;;;;5101373;28;20210;-63
2023/09/24 11:07:12;;;;;;;4.93;1.00;;;20.30;99.90;;;;;;5098689;28;20508;-63
2023/09/24 11:09:38;;;;;;;1.60;0.93;;;20.40;99.40;;;;;;5098319;28;20435;-63
2023/09/24 11:12:09;;;;;;;3.77;0.90;;;20.40;98.30;;;;;;5097214;28;20440;-63
2023/09/24 11:14:35;;;;;;;2.73;0.93;;;20.20;98.00;;;;;;5074308;28;20252;-63
2023/09/24 11:17:01;;;;;;;1.43;1.00;;;20.20;99.10;;;;;;5101223;27;20452;-63
2023/09/24 11:19:42;;;;;;;3.10;1.10;;;20.30;98.80;;;;;;5094940;28;20180;-63
2023/09/24 11:22:19;;;;;;;3.60;1.13;;;20.40;97.30;;;;;;5103348;28;20978;-63
2023/09/24 11:24:45;;;;;;;2.33;1.10;;;20.50;98.10;;;;;;5096736;28;20421;-63
2023/09/24 11:27:11;;;;;;;1.30;1.20;;;20.60;98.60;;;;;;5093389;28;20429;-63
2023/09/24 11:29:37;;;;;;;3.23;1.40;;;20.70;97.90;;;;;;5095904;28;21010;-63
2023/09/24 11:32:02;;;;;;;2.13;1.23;;;20.70;99.40;;;;;;5100823;28;20187;-63
2023/09/24 11:34:29;;;;;;;3.40;1.30;;;20.80;98.30;;;;;;5094609;28;20183;-63
2023/09/24 11:36:58;;;;;;;2.97;1.13;;;20.80;98.40;;;;;;5103316;28;20188;-63
2023/09/24 11:39:24;;;;;;;4.00;1.47;;;20.80;98.40;;;;;;5100740;28;20495;-63
2023/09/24 11:41:51;;;;;;;1.93;1.20;;;20.60;98.00;;;;;;5099392;28;20461;-63
2023/09/24 11:44:17;;;;;;;1.10;0.93;;;20.50;98.40;;;;;;5095449;28;20433;-63
2023/09/24 11:46:46;;;;;;;3.27;1.63;;;20.40;98.60;;;;;;5076794;28;20427;-63
2023/09/24 11:49:12;;;;;;;3.93;1.40;;;20.30;98.90;;;;;;5098323;28;20438;-62
2023/09/24 11:51:37;;;;;;;1.57;1.00;;;20.40;99.90;;;;;;5100257;28;20508;-63
2023/09/24 11:54:04;;;;;;;2.27;1.20;;;20.40;99.80;;;;;;5103184;28;20524;-63
2023/09/24 11:56:33;;;;;;;2.90;1.57;;;20.50;98.00;;;;;;5100124;28;20191;-63
2023/09/24 11:58:59;;;;;;;1.93;1.10;;;20.40;99.10;;;;;;5103062;28;20426;-63
2023/09/24 12:01:26;;;;;;;1.20;1.07;;;20.40;99.00;;;;;;5088224;28;20458;-62
2023/09/24 12:03:53;;;;;;;2.23;0.93;;;20.40;98.50;;;;;;5100154;27;20422;-63
2023/09/24 12:06:19;;;;;;;4.33;1.37;;;20.40;98.60;;;;;;5100606;28;20436;-62
2023/09/24 12:08:45;;;;;;;1.40;1.30;;;20.50;98.90;;;;;;5097859;28;20422;-63
2023/09/24 12:11:11;;;;;;;3.93;1.50;;;20.50;98.70;;;;;;5073378;28;20948;-63
2023/09/24 12:13:37;;;;;;;1.47;1.10;;;20.50;98.90;;;;;;5099345;28;20180;-63
2023/09/24 12:16:03;;;;;;;2.53;0.97;;;20.50;99.30;;;;;;5091046;28;20433;-63
2023/09/24 12:18:29;;;;;;;1.30;0.90;;;20.50;99.60;;;;;;5092372;28;20210;-63
2023/09/24 12:20:56;;;;;;;2.93;1.20;;;20.50;99.20;;;;;;5096519;28;20426;-64
2023/09/24 12:23:22;;;;;;;1.30;0.90;;;20.50;99.30;;;;;;5091676;28;20214;-63
2023/09/24 12:25:48;;;;;;;2.60;1.30;;;20.50;97.90;;;;;;5094477;28;20423;-63
2023/09/24 12:28:15;;;;;;;1.27;1.10;;;20.60;98.70;;;;;;5095319;28;20224;-63
2023/09/24 12:30:42;;;;;;;1.53;1.10;;;20.70;99.10;;;;;;5106281;28;20183;-63
2023/09/24 12:33:07;;;;;;;2.00;1.10;;;20.80;98.90;;;;;;5080911;28;20429;-63
2023/09/24 12:35:33;;;;;;;1.47;1.00;;;20.80;99.10;;;;;;5098997;28;21036;-63
2023/09/24 12:37:59;;;;;;;4.40;1.17;;;20.90;99.80;;;;;;5106023;28;20189;-63
2023/09/24 12:40:25;;;;;;;1.50;0.80;;;20.90;97.90;;;;;;5097470;28;20326;-63
2023/09/24 12:42:51;;;;;;;1.60;1.07;;;21.00;97.40;;;;;;5101054;28;20208;-63
2023/09/24 12:45:17;;;;;;;3.43;1.10;;;21.00;96.30;;;;;;5099982;27;20916;-63
2023/09/24 12:47:44;;;;;;;1.37;0.90;;;21.00;93.80;;;;;;5106622;28;20424;-63
2023/09/24 12:50:12;;;;;;;1.10;0.90;;;20.80;95.10;;;;;;5098193;28;20499;-62